Webcam Richtung Westen

Webcam27

Webcam Richtung Norden

Webcam36

Webcam Richtung Osten

Webcam09

Wetter(Würzburg):
191700Z AUTO 10014G20KT 24KM OVC028 03/M02 Q1012
		
Mon 19.11.2018, 17:00 UTC

Sichtweite bis zu 24 km
Wind aus 100° mit 14kt, in Böen bis zu 20kt
bedeckter Himmel (8 Achtel) bei 2800 Fuß
Temperatur: 3 °C
Taupunkt: -2 °C
QNH: 1012 hPa
                         Heute        Morgen
                         19.11        20.11
--------------------------------------------
Beginn der Dämmerung     06:02        06:04
Sonnenaufgang            06:38        06:39
Sonnenuntergang          15:33        15:32
Ende der Dämmerung       16:09        16:08

Alle Zeiten in UTC